New Ulm, Texas
Current Conditions -  °F | °C
As of 5:15 PM on Friday 31 Oct 2014 (Local Time) from K66R Reporting Station
Clear Clear  
Wind Chill: 75°   Ceiling: Unl
Heat Index: 75°   Visibility: 10mi
Dew Point: 39°   Wind: 8mph
Humidity: 27%   Direction: 10°N
Pressure: 30.18"   Gusts: 18mph
Location:  29.89°N, 96.49°W
Report Text: K66R 312215Z AUTO 01007G16KT 10SM CLR 24/04 A3018 RMK AO2 T02370037
Loading
Personal Weather Stations






























Interactive Weather Map
Tropical Storm Tracking
New forecast layout! Learn more

10-Day Weather Forecast

Advertisements
Track Severe Weather on mobile